Time;durP1;ratioP1;P1;durP2;ratioP2;P2;SDS_P1;SDS_P2;PMS_P1;PMS_P2;Temp;Humidity;BMP_temperature;BMP_pressure;BME280_temperature;BME280_humidity;BME280_pressure;Samples;Min_cycle;Max_cycle;Signal;HPM_P1;HPM_P2
2022/06/06 00:02:02;;;;;;;75.53;36.42;;;;;;;15.23;100.00;101173.50;5053208;28;20120;-74
2022/06/06 00:04:28;;;;;;;81.10;36.15;;;;;;;15.21;100.00;101176.28;5038792;28;21056;-74
2022/06/06 00:06:56;;;;;;;75.45;36.22;;;;;;;15.27;100.00;101170.34;5045660;28;20037;-73
2022/06/06 00:09:23;;;;;;;69.47;34.83;;;;;;;15.24;100.00;101159.44;5046013;28;20037;-74
2022/06/06 00:11:48;;;;;;;63.30;32.15;;;;;;;15.31;100.00;101158.56;5029714;28;20299;-74
2022/06/06 00:14:16;;;;;;;67.97;32.72;;;;;;;15.25;100.00;101166.28;5032842;28;20676;-73
2022/06/06 00:16:42;;;;;;;55.10;28.55;;;;;;;15.31;100.00;101160.34;5046246;28;20607;-73
2022/06/06 00:19:09;;;;;;;58.20;29.75;;;;;;;15.28;100.00;101161.53;5054807;28;20029;-74
2022/06/06 00:21:34;;;;;;;60.22;29.33;;;;;;;15.21;100.00;101162.41;5044457;28;20025;-74
2022/06/06 00:24:00;;;;;;;64.55;28.38;;;;;;;15.22;100.00;101153.56;5052549;28;20029;-74
2022/06/06 00:26:28;;;;;;;59.13;29.38;;;;;;;15.26;100.00;101153.06;5043526;28;20018;-73
2022/06/06 00:28:54;;;;;;;55.60;27.65;;;;;;;15.24;100.00;101154.19;5043967;28;20063;-74
2022/06/06 00:36:47;;;;;;;57.28;27.25;;;;;;;15.17;100.00;101165.38;5047690;23;20426;-71
2022/06/06 00:39:15;;;;;;;57.30;26.17;;;;;;;15.14;100.00;101164.91;5001510;28;20041;-71
2022/06/06 00:41:43;;;;;;;51.28;25.02;;;;;;;15.12;100.00;101161.66;5004244;28;20037;-72
2022/06/06 00:44:11;;;;;;;55.17;24.52;;;;;;;15.15;100.00;101167.34;5006325;28;20407;-70
2022/06/06 00:46:42;;;;;;;53.28;25.17;;;;;;;15.23;100.00;101173.50;5022444;28;20034;-72
2022/06/06 00:49:17;;;;;;;44.33;22.27;;;;;;;15.11;100.00;101170.50;4998375;28;20121;-71
2022/06/06 00:51:43;;;;;;;45.75;22.70;;;;;;;15.11;100.00;101175.72;4988294;28;20432;-71
2022/06/06 00:54:09;;;;;;;46.97;22.33;;;;;;;15.10;100.00;101174.09;5001228;28;20468;-72
2022/06/06 00:56:47;;;;;;;43.67;21.65;;;;;;;15.03;100.00;101181.84;4988382;28;20034;-72
2022/06/06 00:59:16;;;;;;;54.47;23.40;;;;;;;15.04;100.00;101169.56;4998637;28;20521;-72
2022/06/06 01:01:43;;;;;;;44.55;22.38;;;;;;;15.03;100.00;101173.16;4993776;28;20472;-72
2022/06/06 01:04:11;;;;;;;46.35;22.58;;;;;;;15.06;100.00;101170.22;4986177;28;20774;-71
2022/06/06 01:06:41;;;;;;;46.92;21.25;;;;;;;15.05;100.00;101172.03;5002040;28;20034;-71
2022/06/06 01:09:07;;;;;;;48.20;23.45;;;;;;;15.06;100.00;101162.38;5002310;28;20746;-71
2022/06/06 01:11:39;;;;;;;52.63;22.23;;;;;;;15.10;100.00;101174.09;5002321;28;20046;-72
2022/06/06 01:14:06;;;;;;;;;;;;;;;15.11;100.00;101162.66;4985025;28;20505;-72
2022/06/06 01:16:38;;;;;;;46.63;22.05;;;;;;;15.11;100.00;101163.47;4979898;28;19983;-71
2022/06/06 01:19:25;;;;;;;45.22;22.10;;;;;;;15.14;100.00;101163.13;5003636;28;21250;-72
2022/06/06 01:22:06;;;;;;;50.17;23.45;;;;;;;14.98;100.00;101165.88;5005885;28;20061;-72
2022/06/06 01:25:06;;;;;;;49.30;22.30;;;;;;;14.99;100.00;101170.09;5001739;28;20128;-72
2022/06/06 01:27:52;;;;;;;45.83;22.77;;;;;;;14.97;100.00;101166.84;4982724;28;20033;-72
2022/06/06 01:30:22;;;;;;;53.80;23.70;;;;;;;14.97;100.00;101167.69;4985460;28;20037;-71
2022/06/06 01:32:57;;;;;;;55.97;24.38;;;;;;;14.99;100.00;101155.25;5003919;28;21608;-72
2022/06/06 01:35:36;;;;;;;51.00;22.60;;;;;;;15.01;100.00;101173.34;5002017;28;20041;-72
2022/06/06 01:38:02;;;;;;;50.63;23.35;;;;;;;14.94;100.00;101165.41;5003922;28;20049;-72
2022/06/06 01:40:48;;;;;;;62.35;23.90;;;;;;;14.98;100.00;101160.66;4992477;28;20660;-72
2022/06/06 01:43:20;;;;;;;52.25;22.63;;;;;;;15.04;100.00;101162.56;4986338;28;20041;-72
2022/06/06 01:45:54;;;;;;;51.47;24.52;;;;;;;15.03;100.00;101157.50;4988464;28;20677;-72
2022/06/06 01:48:35;;;;;;;53.30;22.00;;;;;;;14.98;100.00;101156.22;5001365;28;20069;-72
2022/06/06 01:51:13;;;;;;;51.92;23.42;;;;;;;14.95;100.00;101161.00;4992850;28;20087;-72
2022/06/06 01:53:39;;;;;;;51.95;22.70;;;;;;;14.98;100.00;101150.22;5002603;28;20041;-71
2022/06/06 01:56:08;;;;;;;57.97;25.67;;;;;;;14.94;100.00;101151.56;5003750;28;20014;-72
2022/06/06 01:58:34;;;;;;;56.10;24.20;;;;;;;14.87;100.00;101151.44;4991360;28;20139;-73
2022/06/06 02:01:02;;;;;;;45.30;22.33;;;;;;;15.01;100.00;101155.06;4987569;28;20513;-72
2022/06/06 02:03:28;;;;;;;45.03;21.08;;;;;;;14.96;100.00;101146.97;5006102;28;20080;-72
2022/06/06 02:05:54;;;;;;;48.00;22.60;;;;;;;14.96;100.00;101139.94;5002376;28;20025;-72
2022/06/06 02:08:20;;;;;;;50.55;23.73;;;;;;;14.90;100.00;101130.19;5007143;28;20399;-72
2022/06/06 02:10:46;;;;;;;41.45;18.98;;;;;;;14.92;100.00;101128.22;4987080;28;20427;-72
2022/06/06 02:13:12;;;;;;;40.22;20.25;;;;;;;15.08;100.00;101142.13;4989979;28;20060;-71
2022/06/06 02:15:38;;;;;;;45.88;20.48;;;;;;;15.01;100.00;101135.97;4988660;28;20030;-72
2022/06/06 02:18:04;;;;;;;46.60;20.52;;;;;;;15.06;100.00;101134.47;4991112;28;20162;-72
2022/06/06 02:20:31;;;;;;;39.40;19.17;;;;;;;14.98;100.00;101137.16;4999103;28;20517;-72
2022/06/06 02:22:58;;;;;;;39.78;19.42;;;;;;;15.03;100.00;101144.44;5003708;28;20030;-72
2022/06/06 02:25:24;;;;;;;40.45;19.73;;;;;;;14.97;100.00;101143.34;4985755;28;20045;-71
2022/06/06 02:27:52;;;;;;;39.58;17.83;;;;;;;15.01;100.00;101149.03;4989034;28;20125;-71
2022/06/06 02:30:22;;;;;;;36.03;16.42;;;;;;;14.96;100.00;101147.75;4987213;28;20438;-71
2022/06/06 02:32:48;;;;;;;38.97;17.10;;;;;;;14.96;100.00;101147.75;4983398;28;20483;-72
2022/06/06 02:35:17;;;;;;;29.60;15.52;;;;;;;14.90;100.00;101145.03;4983459;28;20037;-72
2022/06/06 02:37:45;;;;;;;34.25;15.43;;;;;;;14.91;100.00;101144.06;4989817;28;20026;-72
2022/06/06 02:40:12;;;;;;;27.33;15.40;;;;;;;14.95;100.00;101146.13;4972911;28;20112;-71
2022/06/06 02:42:37;;;;;;;35.38;14.25;;;;;;;15.04;100.00;101143.47;5003365;28;20033;-72
2022/06/06 02:45:05;;;;;;;30.20;13.50;;;;;;;14.95;100.00;101132.28;5000888;28;20030;-72
2022/06/06 02:47:30;;;;;;;24.23;12.82;;;;;;;14.96;100.00;101142.53;4984867;28;20045;-72
2022/06/06 02:49:56;;;;;;;20.63;11.82;;;;;;;14.92;100.00;101143.88;4997427;28;20196;-72
2022/06/06 02:52:21;;;;;;;22.80;12.00;;;;;;;14.84;100.00;101146.53;4982530;28;20421;-72
2022/06/06 02:54:47;;;;;;;24.25;12.85;;;;;;;14.81;100.00;101148.72;4984356;28;20486;-71
2022/06/06 02:57:12;;;;;;;23.10;12.00;;;;;;;14.83;100.00;101147.56;4993294;28;20508;-72
2022/06/06 02:59:41;;;;;;;20.40;10.85;;;;;;;14.81;100.00;101144.31;4982005;28;20037;-72
2022/06/06 03:02:08;;;;;;;21.15;10.38;;;;;;;14.80;100.00;101140.06;4984187;28;20391;-71
2022/06/06 03:04:34;;;;;;;25.42;13.10;;;;;;;14.80;100.00;101137.44;4996186;28;20087;-72
2022/06/06 03:07:28;;;;;;;26.88;11.77;;;;;;;14.85;99.62;101144.78;4983380;28;20075;-71
2022/06/06 03:10:31;;;;;;;25.75;10.48;;;;;;;14.81;99.78;101130.44;4994574;28;20041;-72
2022/06/06 03:13:14;;;;;;;18.73;10.25;;;;;;;14.79;99.76;101136.66;5000865;28;20042;-71
2022/06/06 03:15:40;;;;;;;20.95;11.00;;;;;;;14.84;99.51;101128.28;5001831;28;20487;-71
2022/06/06 03:21:10;;;;;;;18.05;10.40;;;;;;;14.81;99.90;101133.88;5003746;28;20039;-72
2022/06/06 03:24:14;;;;;;;23.08;11.40;;;;;;;14.66;100.00;101136.44;5001655;28;20033;-71
2022/06/06 03:26:58;;;;;;;;;;;;;;;14.75;99.83;101131.97;4996156;28;20109;-72
2022/06/06 03:29:55;;;;;;;23.05;12.02;;;;;;;14.78;98.98;101142.84;4999416;28;19917;-72
2022/06/06 03:32:55;;;;;;;22.58;10.90;;;;;;;14.70;99.45;101142.09;4998362;28;20038;-72
2022/06/06 03:35:31;;;;;;;20.73;11.50;;;;;;;14.58;99.51;101139.91;4982991;28;20062;-72
2022/06/06 03:38:05;;;;;;;22.70;11.98;;;;;;;14.59;98.82;101144.13;5000678;28;20057;-72
2022/06/06 03:40:36;;;;;;;24.10;12.05;;;;;;;14.53;99.62;101144.00;4986304;28;20062;-71
2022/06/06 03:43:17;;;;;;;23.52;11.23;;;;;;;14.48;99.78;101148.91;4986317;28;21135;-69
2022/06/06 03:46:13;;;;;;;26.52;12.23;;;;;;;14.48;98.99;101144.50;4987995;28;20030;-71
2022/06/06 03:49:18;;;;;;;22.83;12.27;;;;;;;14.53;98.57;101150.00;4983715;28;20044;-71
2022/06/06 03:52:00;;;;;;;24.35;12.38;;;;;;;14.51;98.55;101153.78;4984713;28;20084;-71
2022/06/06 03:54:46;;;;;;;23.42;11.77;;;;;;;14.51;98.30;101156.41;4998138;28;20092;-71
2022/06/06 03:57:18;;;;;;;31.27;12.85;;;;;;;14.54;98.26;101162.09;4985550;28;20060;-71
2022/06/06 03:59:47;;;;;;;20.73;12.13;;;;;;;14.45;98.20;101172.72;4982490;28;20574;-70
2022/06/06 04:02:18;;;;;;;20.42;10.95;;;;;;;14.47;98.25;101183.81;5003154;28;20125;-71
2022/06/06 04:04:44;;;;;;;22.65;12.35;;;;;;;14.45;98.23;101178.78;5002186;28;20034;-70
2022/06/06 04:07:10;;;;;;;26.75;12.98;;;;;;;14.49;97.91;101169.63;4987167;28;20029;-70
2022/06/06 04:09:35;;;;;;;27.70;12.63;;;;;;;14.51;98.31;101179.88;4991955;28;20751;-71
2022/06/06 04:12:13;;;;;;;27.02;12.98;;;;;;;14.47;98.10;101179.41;5008783;28;20029;-71
2022/06/06 04:14:55;;;;;;;22.05;11.82;;;;;;;14.53;97.98;101181.31;5002274;28;20077;-71
2022/06/06 04:17:48;;;;;;;21.60;11.80;;;;;;;14.56;97.80;101182.75;4990702;28;20044;-72
2022/06/06 04:20:38;;;;;;;20.85;11.48;;;;;;;14.64;97.01;101172.31;4988936;28;20046;-71
2022/06/06 04:23:12;;;;;;;24.48;11.38;;;;;;;14.58;97.11;101178.25;4969808;28;20037;-71
2022/06/06 04:25:48;;;;;;;22.85;10.75;;;;;;;14.56;97.15;101173.16;4984006;28;20022;-70
2022/06/06 04:28:49;;;;;;;21.60;11.18;;;;;;;14.57;96.71;101181.81;5004895;28;20033;-71
2022/06/06 04:31:38;;;;;;;26.02;11.45;;;;;;;14.47;97.20;101176.00;5000715;28;20041;-72
2022/06/06 04:34:13;;;;;;;20.35;11.40;;;;;;;14.46;97.33;101182.19;4985425;28;20542;-71
2022/06/06 04:36:47;;;;;;;20.67;10.15;;;;;;;14.43;97.88;101183.34;4988552;28;20033;-71
2022/06/06 04:39:24;;;;;;;25.58;10.70;;;;;;;14.40;98.00;101186.28;4968928;28;20045;-72
2022/06/06 04:42:08;;;;;;;19.90;11.80;;;;;;;14.51;97.24;101200.75;4985094;28;21567;-71
2022/06/06 04:45:04;;;;;;;25.95;11.65;;;;;;;14.55;96.51;101192.41;5005179;28;20037;-71
2022/06/06 04:47:36;;;;;;;20.08;11.40;;;;;;;14.59;96.73;101198.94;5000598;28;20042;-72
2022/06/06 04:50:12;;;;;;;28.00;13.35;;;;;;;14.60;96.43;101197.16;4987678;28;20080;-71
2022/06/06 04:52:42;;;;;;;21.52;10.13;;;;;;;14.56;97.03;101196.66;4981711;28;20026;-71
2022/06/06 04:55:09;;;;;;;23.15;10.73;;;;;;;14.54;97.26;101200.41;4990073;28;20103;-71
2022/06/06 04:57:39;;;;;;;22.42;11.25;;;;;;;14.55;96.40;101196.81;5002784;28;20052;-72
2022/06/06 05:00:07;;;;;;;24.75;11.43;;;;;;;14.59;95.37;101203.34;4984839;28;20598;-71
2022/06/06 05:02:35;;;;;;;20.15;9.75;;;;;;;14.40;96.14;101202.75;4987934;28;20035;-72
2022/06/06 05:05:01;;;;;;;24.50;10.75;;;;;;;14.35;97.01;101201.63;5002785;28;20475;-71
2022/06/06 05:07:54;;;;;;;21.73;10.68;;;;;;;14.45;96.21;101202.25;5004469;28;20120;-71
2022/06/06 05:10:30;;;;;;;22.25;9.63;;;;;;;14.54;94.69;101206.44;4985466;28;20528;-71
2022/06/06 05:13:18;;;;;;;18.73;9.70;;;;;;;14.70;94.04;101212.56;5000294;28;20034;-71
2022/06/06 05:16:28;;;;;;;21.40;9.20;;;;;;;14.65;93.71;101205.25;4988281;28;20036;-71
2022/06/06 05:19:29;;;;;;;14.02;8.40;;;;;;;14.82;92.87;101199.94;4970515;28;20085;-71
2022/06/06 05:22:03;;;;;;;21.98;9.02;;;;;;;14.91;90.35;101204.91;4999550;28;20458;-71
2022/06/06 05:24:59;;;;;;;15.18;8.20;;;;;;;14.98;90.38;101205.03;5001255;28;20477;-71
2022/06/06 05:27:33;;;;;;;15.32;8.25;;;;;;;15.17;89.38;101208.97;4970844;28;20488;-71
2022/06/06 05:30:15;;;;;;;20.05;7.47;;;;;;;15.36;88.86;101208.47;5002085;28;20673;-71
2022/06/06 05:32:59;;;;;;;15.20;7.22;;;;;;;15.42;87.39;101206.94;4985465;28;20042;-71
2022/06/06 05:35:59;;;;;;;16.52;7.93;;;;;;;15.66;86.12;101213.72;5003468;28;20029;-70
2022/06/06 05:38:43;;;;;;;16.58;8.05;;;;;;;15.69;85.15;101207.31;4989199;28;20064;-71
2022/06/06 05:41:43;;;;;;;14.90;8.18;;;;;;;15.86;84.05;101208.00;4999210;28;20049;-71
2022/06/06 05:44:37;;;;;;;14.77;7.80;;;;;;;16.00;83.71;101207.19;4985226;28;20030;-71
2022/06/06 05:47:20;;;;;;;;;;;;;;;16.13;83.10;101207.34;5002128;28;20045;-71
2022/06/06 05:50:02;;;;;;;17.00;8.52;;;;;;;16.28;83.03;101209.13;4998392;28;19913;-72
2022/06/06 05:52:43;;;;;;;13.48;6.95;;;;;;;16.47;81.83;101210.34;4969581;28;20065;-71
2022/06/06 05:55:22;;;;;;;13.45;7.07;;;;;;;16.71;80.29;101211.81;4985732;28;20113;-71
2022/06/06 05:57:57;;;;;;;15.55;7.15;;;;;;;16.88;78.64;101213.22;4986404;28;20029;-71
2022/06/06 06:00:25;;;;;;;14.68;7.15;;;;;;;17.03;76.39;101215.75;4997616;28;20127;-71
2022/06/06 06:03:16;;;;;;;11.90;5.72;;;;;;;17.16;75.73;101214.25;4998677;28;20042;-71
2022/06/06 06:06:09;;;;;;;13.45;6.88;;;;;;;17.26;76.01;101225.22;4986642;28;20092;-70
2022/06/06 06:08:34;;;;;;;;;;;;;;;17.56;74.79;101225.03;4989295;28;20056;-71
2022/06/06 06:11:27;;;;;;;12.63;6.50;;;;;;;17.94;73.40;101222.84;4984522;28;19918;-71
2022/06/06 06:14:20;;;;;;;10.45;6.10;;;;;;;17.99;72.36;101230.97;5000234;28;20484;-71
2022/06/06 06:16:52;;;;;;;9.75;5.07;;;;;;;17.77;73.69;101235.44;4983907;28;20030;-70
2022/06/06 06:19:23;;;;;;;9.30;5.80;;;;;;;17.58;73.52;101234.31;4984636;28;20057;-71
2022/06/06 06:21:55;;;;;;;15.10;5.93;;;;;;;17.48;73.09;101236.47;5000137;28;20034;-70
2022/06/06 06:24:29;;;;;;;10.88;4.68;;;;;;;17.93;72.27;101229.09;4980090;28;20053;-71
2022/06/06 06:26:56;;;;;;;7.68;3.95;;;;;;;18.33;68.23;101225.81;4999068;28;20137;-71
2022/06/06 06:29:22;;;;;;;7.95;4.00;;;;;;;18.55;66.85;101221.25;4999987;28;20133;-71
2022/06/06 06:32:08;;;;;;;7.85;3.60;;;;;;;18.49;64.66;101223.66;4969251;28;20041;-71
2022/06/06 06:34:46;;;;;;;8.75;3.83;;;;;;;18.59;64.21;101233.81;4983416;28;20040;-71
2022/06/06 06:37:22;;;;;;;6.47;3.38;;;;;;;18.80;64.63;101230.25;4970548;28;20137;-73
2022/06/06 06:40:26;;;;;;;4.78;3.03;;;;;;;18.86;62.84;101226.81;4985645;28;20367;-73
2022/06/06 06:43:25;;;;;;;5.00;3.20;;;;;;;19.43;61.56;101227.19;4946576;28;20404;-73
2022/06/06 06:45:52;;;;;;;8.43;3.05;;;;;;;19.72;60.01;101235.69;5008480;28;20038;-72
2022/06/06 06:48:36;;;;;;;4.50;3.10;;;;;;;19.80;58.85;101239.94;4991339;28;20037;-73
2022/06/06 06:51:08;;;;;;;4.95;2.95;;;;;;;19.98;57.06;101252.41;4987371;28;20157;-72
2022/06/06 06:54:12;;;;;;;5.43;2.80;;;;;;;20.02;56.86;101248.34;5002697;28;20045;-72
2022/06/06 06:56:56;;;;;;;;;;;;;;;20.33;56.46;101245.00;5004391;28;20092;-73
2022/06/06 06:59:37;;;;;;;6.53;2.55;;;;;;;20.55;54.96;101236.75;4983759;28;20280;-73
2022/06/06 07:11:01;;;;;;;5.70;2.30;;;;;;;21.58;53.80;101232.97;4987909;28;20030;-73
2022/06/06 07:13:33;;;;;;;3.72;2.05;;;;;;;21.44;51.89;101231.47;5006818;28;20091;-73
2022/06/06 07:16:26;;;;;;;3.65;1.52;;;;;;;21.21;51.12;101248.72;4981232;28;20037;-72
2022/06/06 07:18:58;;;;;;;;;;;;;;;21.51;50.91;101229.59;5004985;28;20125;-73
2022/06/06 07:21:26;;;;;;;3.83;1.60;;;;;;;21.64;50.27;101237.38;4989761;28;20036;-72
2022/06/06 07:23:55;;;;;;;2.65;1.70;;;;;;;21.51;51.28;101232.22;4987697;28;20034;-72
2022/06/06 07:26:21;;;;;;;3.65;1.80;;;;;;;21.61;49.46;101237.03;4988463;28;20094;-72
2022/06/06 07:28:47;;;;;;;6.28;1.35;;;;;;;22.03;50.70;101227.41;5003278;28;20504;-74
2022/06/06 07:31:40;;;;;;;3.17;1.80;;;;;;;22.30;49.36;101227.09;4985029;28;20042;-73
2022/06/06 07:34:21;;;;;;;2.70;1.70;;;;;;;22.49;49.63;101212.00;5001470;28;20026;-73
2022/06/06 07:37:14;;;;;;;4.93;1.30;;;;;;;23.25;49.10;101218.34;4987243;28;20037;-73
2022/06/06 07:39:49;;;;;;;5.43;2.08;;;;;;;23.42;47.33;101207.06;5006604;28;20032;-73
2022/06/06 07:43:04;;;;;;;3.22;1.55;;;;;;;23.68;48.00;101208.41;5010410;28;20117;-73
2022/06/06 07:45:38;;;;;;;4.78;1.48;;;;;;;23.52;47.47;101218.66;4964160;28;20046;-73
2022/06/06 07:48:25;;;;;;;5.75;2.00;;;;;;;23.10;47.76;101213.50;5009060;28;20104;-73
2022/06/06 07:50:59;;;;;;;4.75;1.52;;;;;;;23.41;46.01;101216.03;4987676;28;20077;-72
2022/06/06 07:54:02;;;;;;;1.55;1.15;;;;;;;23.32;46.85;101207.66;5002859;28;20034;-73
2022/06/06 07:56:32;;;;;;;5.40;1.10;;;;;;;23.61;46.39;101213.81;4958028;28;20103;-72
2022/06/06 07:59:23;;;;;;;3.10;1.20;;;;;;;23.90;45.35;101213.91;5005272;28;20037;-72
2022/06/06 08:02:00;;;;;;;2.60;0.88;;;;;;;23.39;45.49;101221.56;5006381;28;20124;-73
2022/06/06 08:04:40;;;;;;;0.90;0.80;;;;;;;23.24;44.82;101226.50;5006074;28;20600;-73
2022/06/06 08:07:40;;;;;;;2.80;1.00;;;;;;;22.63;45.74;101231.91;5005408;28;20491;-72
2022/06/06 08:10:13;;;;;;;5.18;0.80;;;;;;;22.49;48.17;101222.56;5002329;28;20034;-72
2022/06/06 08:12:47;;;;;;;1.58;0.70;;;;;;;22.03;48.92;101224.75;5005231;28;20388;-72
2022/06/06 08:15:29;;;;;;;1.33;1.00;;;;;;;21.88;49.56;101224.34;4969754;28;20357;-72
2022/06/06 08:18:18;;;;;;;6.00;1.00;;;;;;;21.86;49.82;101227.19;4988129;28;20034;-72
2022/06/06 08:21:07;;;;;;;2.97;0.60;;;;;;;21.51;50.18;101221.69;4987068;28;20488;-72
2022/06/06 08:23:34;;;;;;;1.10;0.80;;;;;;;22.44;48.53;101217.97;4987996;28;20029;-73
2022/06/06 08:26:01;;;;;;;0.95;0.60;;;;;;;22.34;46.76;101231.72;5005799;28;20022;-72
2022/06/06 08:28:28;;;;;;;3.08;0.70;;;;;;;22.46;47.31;101231.75;4999903;28;20098;-71
2022/06/06 08:30:53;;;;;;;2.70;0.90;;;;;;;21.48;48.87;101230.03;4996233;28;20030;-73
2022/06/06 08:33:19;;;;;;;3.70;0.80;;;;;;;21.69;49.44;101223.53;4991986;28;20041;-71
2022/06/06 08:36:03;;;;;;;2.83;1.02;;;;;;;21.89;49.32;101225.97;5006514;28;20030;-72
2022/06/06 08:38:47;;;;;;;4.05;1.13;;;;;;;22.33;48.22;101227.44;4989658;28;20038;-71
2022/06/06 08:41:49;;;;;;;3.85;0.60;;;;;;;21.75;49.53;101228.72;5006988;28;20068;-71
2022/06/06 08:44:36;;;;;;;2.88;0.90;;;;;;;21.96;48.43;101227.50;5006683;28;20044;-72
2022/06/06 08:47:43;;;;;;;4.18;0.85;;;;;;;22.88;46.94;101223.00;4989863;28;20030;-72
2022/06/06 08:53:26;;;;;;;2.17;0.80;;;;;;;22.79;44.07;101229.66;5008843;28;20048;-71
2022/06/06 08:56:29;;;;;;;1.52;0.80;;;;;;;22.66;47.43;101218.25;5001084;28;20562;-71
2022/06/06 08:59:26;;;;;;;2.78;0.95;;;;;;;23.22;45.43;101225.94;5005084;28;20034;-72
2022/06/06 09:02:31;;;;;;;2.58;0.80;;;;;;;23.44;43.90;101231.47;4989935;28;20497;-71
2022/06/06 09:05:05;;;;;;;3.05;1.27;;;;;;;22.47;46.44;101233.38;4996823;28;20029;-72
2022/06/06 09:07:34;;;;;;;3.00;0.70;;;;;;;22.19;47.03;101236.56;4991389;28;20119;-72
2022/06/06 09:10:27;;;;;;;1.30;0.55;;;;;;;22.58;47.00;101223.84;5003219;28;20078;-72
2022/06/06 09:13:22;;;;;;;7.07;1.25;;;;;;;22.24;46.32;101225.31;4985783;28;20404;-72
2022/06/06 09:15:50;;;;;;;4.25;1.25;;;;;;;22.14;46.90;101234.56;4986125;28;20061;-71
2022/06/06 09:18:34;;;;;;;1.48;0.80;;;;;;;21.91;47.18;101234.47;5000524;28;20041;-72
2022/06/06 09:21:38;;;;;;;1.63;0.70;;;;;;;22.05;49.16;101232.47;4986900;28;20385;-72
2022/06/06 09:24:26;;;;;;;3.25;1.38;;;;;;;22.13;47.05;101235.63;4969174;28;20522;-72
2022/06/06 09:26:55;;;;;;;3.47;0.80;;;;;;;22.74;45.74;101235.63;5002532;28;20034;-72
2022/06/06 09:29:40;;;;;;;3.33;1.25;;;;;;;23.62;46.57;101228.69;5006150;28;20037;-72
2022/06/06 09:32:42;;;;;;;5.20;0.80;;;;;;;22.87;44.04;101227.50;5000570;28;20121;-72
2022/06/06 09:35:31;;;;;;;2.67;0.63;;;;;;;22.05;46.10;101235.91;5002945;28;20040;-71
2022/06/06 09:38:28;;;;;;;3.90;0.80;;;;;;;21.86;46.49;101248.31;5003920;28;20560;-72
2022/06/06 09:41:11;;;;;;;0.93;0.60;;;;;;;21.32;46.68;101239.28;5001066;28;20038;-71
2022/06/06 09:43:57;;;;;;;8.10;0.87;;;;;;;21.35;47.25;101236.22;4986003;28;20038;-73
2022/06/06 09:46:44;;;;;;;3.28;0.90;;;;;;;21.19;49.35;101234.91;4983582;28;20041;-72
2022/06/06 09:49:16;;;;;;;2.53;0.50;;;;;;;20.97;49.47;101231.88;4986954;28;20029;-72
2022/06/06 09:51:41;;;;;;;1.95;0.70;;;;;;;21.15;49.37;101226.66;4989826;28;20037;-71
2022/06/06 10:00:43;;;;;;;0.77;0.60;;;;;;;22.65;47.10;101210.56;4984052;28;20045;-72
2022/06/06 10:03:14;;;;;;;2.45;1.15;;;;;;;22.50;47.50;101200.41;4947145;28;20415;-72
2022/06/06 10:06:31;;;;;;;2.35;0.77;;;;;;;22.92;45.83;101203.00;5002543;28;20036;-72
2022/06/06 10:09:18;;;;;;;1.33;0.90;;;;;;;23.05;45.12;101191.44;4902848;28;20045;-73
2022/06/06 10:11:58;;;;;;;2.97;0.80;;;;;;;22.80;45.67;101189.78;5000869;28;20108;-72
2022/06/06 10:14:42;;;;;;;1.00;0.73;;;;;;;23.10;45.32;101179.13;4995218;28;20071;-72
2022/06/06 10:17:37;;;;;;;1.58;0.75;;;;;;;23.02;48.57;101178.63;4986133;28;20042;-72
2022/06/06 10:20:20;;;;;;;1.60;0.60;;;;;;;22.96;43.98;101180.34;4985987;28;20389;-72
2022/06/06 10:23:00;;;;;;;3.35;0.60;;;;;;;22.85;46.56;101168.75;4987859;28;20399;-72
2022/06/06 10:25:40;;;;;;;2.95;0.70;;;;;;;22.69;46.47;101186.06;4999225;28;20035;-72
2022/06/06 10:28:18;;;;;;;2.95;0.63;;;;;;;22.12;47.60;101183.81;4998026;28;20109;-72
2022/06/06 10:31:02;;;;;;;1.60;0.60;;;;;;;21.93;47.03;101198.09;4998118;28;20472;-71
2022/06/06 10:33:39;;;;;;;2.58;0.80;;;;;;;21.75;48.19;101183.06;5003865;28;20084;-73
2022/06/06 10:36:29;;;;;;;1.45;0.65;;;;;;;21.83;46.64;101177.50;4983355;28;20033;-73
2022/06/06 10:39:05;;;;;;;1.52;0.77;;;;;;;21.49;48.24;101177.06;4982326;28;20072;-72
2022/06/06 10:41:50;;;;;;;4.00;0.80;;;;;;;21.23;47.54;101191.28;4981784;28;20539;-73
2022/06/06 10:44:27;;;;;;;5.00;2.20;;;;;;;21.04;49.10;101197.53;5002555;28;20030;-72
2022/06/06 10:47:14;;;;;;;6.60;1.60;;;;;;;20.55;60.03;101224.41;4999143;28;20036;-74
2022/06/06 10:50:03;;;;;;;4.45;0.70;;;;;;;19.95;61.81;101227.31;4997597;28;20504;-74
2022/06/06 10:52:58;;;;;;;4.07;0.65;;;;;;;19.17;63.49;101228.03;5001905;28;20105;-74
2022/06/06 10:55:54;;;;;;;3.13;1.30;;;;;;;19.20;65.98;101229.47;4985202;28;20053;-73
2022/06/06 10:59:18;;;;;;;3.85;0.98;;;;;;;19.05;66.25;101224.41;4993678;28;20045;-74
2022/06/06 11:02:03;;;;;;;;;;;;;;;19.11;66.96;101217.53;4910986;29;20031;-73
2022/06/06 11:05:06;;;;;;;3.97;0.80;;;;;;;19.12;65.10;101208.63;4967930;28;20001;-73
2022/06/06 11:07:34;;;;;;;4.38;0.90;;;;;;;19.51;65.79;101210.41;5001044;28;20061;-73
2022/06/06 11:10:12;;;;;;;2.35;0.73;;;;;;;19.52;64.01;101213.84;4990127;28;20034;-74
2022/06/06 11:13:02;;;;;;;3.58;0.88;;;;;;;19.59;64.70;101196.22;4989252;28;20128;-73
2022/06/06 11:15:41;;;;;;;3.90;0.50;;;;;;;19.45;61.61;101196.25;5006527;28;20038;-73
2022/06/06 11:18:46;;;;;;;0.88;0.50;;;;;;;19.70;62.97;101202.66;4995464;28;20029;-73
2022/06/06 11:21:22;;;;;;;2.15;0.85;;;;;;;19.76;60.84;101205.31;4992944;28;20064;-73
2022/06/06 11:24:02;;;;;;;1.15;0.55;;;;;;;19.83;57.93;101207.91;5010156;28;20168;-73
2022/06/06 11:26:33;;;;;;;2.33;0.55;;;;;;;20.13;59.92;101191.63;4985368;28;20492;-72
2022/06/06 11:29:05;;;;;;;1.25;0.80;;;;;;;20.42;58.49;101193.69;4993932;28;20030;-72
2022/06/06 11:31:53;;;;;;;0.82;0.60;;;;;;;20.90;59.80;101181.03;4993300;28;20038;-72
2022/06/06 11:34:40;;;;;;;1.80;0.70;;;;;;;21.18;58.45;101173.47;4990037;28;20072;-72
2022/06/06 11:37:43;;;;;;;2.05;0.68;;;;;;;21.12;56.10;101177.00;5002256;28;20034;-72
2022/06/06 11:40:31;;;;;;;1.67;0.60;;;;;;;21.25;57.30;101173.44;5005647;28;20064;-73
2022/06/06 11:43:38;;;;;;;1.70;1.05;;;;;;;21.10;54.75;101172.97;4963285;28;20501;-72
2022/06/06 11:46:09;;;;;;;3.33;0.70;;;;;;;21.37;56.00;101174.31;4993359;28;20133;-72
2022/06/06 11:48:46;;;;;;;3.00;0.80;;;;;;;21.47;55.64;101155.34;5007819;28;20383;-72
2022/06/06 11:51:56;;;;;;;2.70;0.77;;;;;;;21.55;55.85;101162.19;5005338;28;20053;-72
2022/06/06 11:54:38;;;;;;;6.43;3.22;;;;;;;21.41;53.16;101156.22;5004172;28;20034;-72
2022/06/06 11:57:32;;;;;;;6.67;1.77;;;;;;;21.11;51.95;101164.03;4995376;28;20069;-72
2022/06/06 12:00:06;;;;;;;3.13;1.02;;;;;;;21.32;53.90;101163.63;4988734;28;20037;-72
2022/06/06 12:03:02;;;;;;;3.15;0.70;;;;;;;21.41;54.05;101155.41;4991838;28;20488;-71
2022/06/06 12:06:07;;;;;;;2.88;0.80;;;;;;;22.00;53.32;101151.31;4989599;28;20400;-72
2022/06/06 12:08:42;;;;;;;1.88;0.90;;;;;;;22.21;53.31;101144.72;5005453;28;20025;-72
2022/06/06 12:11:42;;;;;;;1.20;0.80;;;;;;;22.38;51.04;101144.91;4986750;28;20520;-72
2022/06/06 12:14:43;;;;;;;2.08;0.90;;;;;;;22.36;48.49;101139.03;5004820;28;20384;-72
2022/06/06 12:17:21;;;;;;;2.67;1.00;;;;;;;22.53;50.48;101141.84;4987992;28;20045;-72
2022/06/06 12:20:05;;;;;;;1.42;1.10;;;;;;;22.45;49.59;101132.41;5014854;28;20044;-72
2022/06/06 12:22:30;;;;;;;3.95;0.93;;;;;;;22.22;49.19;101143.66;5014233;28;20025;-72
2022/06/06 12:25:08;;;;;;;1.20;0.80;;;;;;;22.53;50.31;101133.91;4980709;28;20176;-72
2022/06/06 12:27:50;;;;;;;8.52;1.38;;;;;;;22.46;47.25;101127.91;4993350;28;20087;-72
2022/06/06 12:30:40;;;;;;;6.03;0.80;;;;;;;22.09;46.60;101143.84;5005872;28;20030;-72
2022/06/06 12:33:18;;;;;;;2.70;0.70;;;;;;;21.84;44.78;101128.94;5011944;28;20025;-72
2022/06/06 12:36:01;;;;;;;2.97;0.77;;;;;;;22.09;47.29;101128.81;4994902;28;20026;-72
2022/06/06 12:38:45;;;;;;;1.65;0.80;;;;;;;22.33;44.97;101142.94;4990997;28;20037;-72
2022/06/06 12:41:37;;;;;;;2.88;0.60;;;;;;;22.08;44.60;101129.06;4978140;28;20029;-72